Oklahoma

Click on a city name for the forecast.
Place Temperature Humidity Pressure Conditions Updated Advisory
Ada 55°F 51% 30.12 in Clear 10:55 PM CDT
Altus 62°F 36% 30.01 in Overcast 10:56 PM CDT
Alva 54°F 67% 30.17 in Rain 10:55 PM CDT
Ardmore 55°F 58% 30.10 in Clear 10:55 PM CDT
Atoka 54°F 54% 30.14 in Clear 10:55 PM CDT
Bartlesville 60°F 32% 30.14 in Clear 10:53 PM CDT
Chandler 53°F 53% 30.12 in Clear 10:55 PM CDT
Chickasha 59°F 48% 30.02 in Overcast 10:55 PM CDT
Claremore 57°F 38% 30.16 in Clear 10:55 PM CDT
Duncan 60°F 50% 30.06 in Overcast 10:55 PM CDT
Durant 54°F 67% 30.13 in Clear 10:55 PM CDT
Enid 59°F 42% 30.06 in Overcast 10:55 PM CDT
Frederick 63°F 41% 29.95 in Overcast 10:53 PM CDT
Gage 49°F 90% 30.09 in Light Rain 10:53 PM CDT
Grove 57°F 33% 30.16 in Clear 10:55 PM CDT
Guthrie 60°F 42% 30.06 in Overcast 10:53 PM CDT
Hobart 61°F 46% 30.04 in Light Thunderstorms and Rain 10:53 PM CDT
Lawton 62°F 48% 30.01 in Overcast 10:53 PM CDT
McAlester 54°F 53% 30.13 in Clear 10:53 PM CDT
Muskogee 58°F 44% 30.14 in Clear 10:53 PM CDT
Norman 58°F 48% 30.05 in Mostly Cloudy 10:55 PM CDT
Oklahoma City 57°F 47% 30.04 in Overcast 10:52 PM CDT
Okmulgee 53°F 60% 30.13 in Clear 10:55 PM CDT
Pauls Valley 56°F 56% 30.08 in Clear 10:55 PM CDT
Ponca City 61°F 32% 30.10 in Overcast 10:53 PM CDT
Poteau 59°F 36% 30.16 in Clear 10:55 PM CDT
Shawnee 56°F 49% 30.10 in Clear 10:55 PM CDT
Stillwater 58°F 41% 30.08 in Clear 10:53 PM CDT
Tahlequah 55°F 41% 30.16 in Clear 10:55 PM CDT
Tinker Air Force Base 58°F 47% 30.07 in Mostly Cloudy 10:56 PM CDT
Tulsa 58°F 41% 30.13 in Overcast 10:53 PM CDT
Woodward 46°F 87% 30.10 in Light Thunderstorms and Rain 10:55 PM CDT

Find the Weather for any City, State or Zipcode, or Country

Questions or Comments